sensor_id;sensor_type;location;lat;lon;timestamp;temperature;humidity
4002;DHT22;2015;48.670;9.060;2023-05-07T00:02:15;12.40;99.90
4002;DHT22;2015;48.670;9.060;2023-05-07T00:04:47;12.40;99.90
4002;DHT22;2015;48.670;9.060;2023-05-07T00:07:19;12.40;99.90
4002;DHT22;2015;48.670;9.060;2023-05-07T00:09:51;12.40;99.90
4002;DHT22;2015;48.670;9.060;2023-05-07T00:12:23;12.40;99.90
4002;DHT22;2015;48.670;9.060;2023-05-07T00:14:55;12.40;99.90
4002;DHT22;2015;48.670;9.060;2023-05-07T00:17:26;12.40;99.90
4002;DHT22;2015;48.670;9.060;2023-05-07T00:19:58;12.40;99.90
4002;DHT22;2015;48.670;9.060;2023-05-07T00:22:31;12.40;99.90
4002;DHT22;2015;48.670;9.060;2023-05-07T00:25:04;12.40;99.90
4002;DHT22;2015;48.670;9.060;2023-05-07T00:27:36;12.40;99.90
4002;DHT22;2015;48.670;9.060;2023-05-07T00:30:08;12.40;99.90
4002;DHT22;2015;48.670;9.060;2023-05-07T00:32:40;12.40;99.90
4002;DHT22;2015;48.670;9.060;2023-05-07T00:35:12;12.40;99.90
4002;DHT22;2015;48.670;9.060;2023-05-07T00:37:44;12.40;99.90
4002;DHT22;2015;48.670;9.060;2023-05-07T00:40:16;12.40;99.90
4002;DHT22;2015;48.670;9.060;2023-05-07T00:42:47;12.40;99.90
4002;DHT22;2015;48.670;9.060;2023-05-07T00:45:20;12.40;99.90
4002;DHT22;2015;48.670;9.060;2023-05-07T00:47:55;12.40;99.90
4002;DHT22;2015;48.670;9.060;2023-05-07T00:50:27;12.40;99.90
4002;DHT22;2015;48.670;9.060;2023-05-07T00:53:00;12.30;99.90
4002;DHT22;2015;48.670;9.060;2023-05-07T00:55:32;12.30;99.90
4002;DHT22;2015;48.670;9.060;2023-05-07T00:58:04;12.30;99.90
4002;DHT22;2015;48.670;9.060;2023-05-07T01:00:36;12.30;99.90
4002;DHT22;2015;48.670;9.060;2023-05-07T01:03:07;12.30;99.90
4002;DHT22;2015;48.670;9.060;2023-05-07T01:05:41;12.30;99.90
4002;DHT22;2015;48.670;9.060;2023-05-07T01:08:14;12.30;99.90
4002;DHT22;2015;48.670;9.060;2023-05-07T01:10:47;12.30;99.90
4002;DHT22;2015;48.670;9.060;2023-05-07T01:13:19;12.20;99.90
4002;DHT22;2015;48.670;9.060;2023-05-07T01:15:51;12.20;99.90
4002;DHT22;2015;48.670;9.060;2023-05-07T01:18:23;12.20;99.90
4002;DHT22;2015;48.670;9.060;2023-05-07T01:20:56;12.20;99.90
4002;DHT22;2015;48.670;9.060;2023-05-07T01:23:30;12.20;99.90
4002;DHT22;2015;48.670;9.060;2023-05-07T01:26:02;12.20;99.90
4002;DHT22;2015;48.670;9.060;2023-05-07T01:28:33;12.10;99.90
4002;DHT22;2015;48.670;9.060;2023-05-07T01:31:05;12.10;99.90
4002;DHT22;2015;48.670;9.060;2023-05-07T01:33:38;12.10;99.90
4002;DHT22;2015;48.670;9.060;2023-05-07T01:36:12;12.10;99.90
4002;DHT22;2015;48.670;9.060;2023-05-07T01:38:45;12.10;99.90
4002;DHT22;2015;48.670;9.060;2023-05-07T01:41:18;12.10;99.90
4002;DHT22;2015;48.670;9.060;2023-05-07T01:43:51;12.10;99.90
4002;DHT22;2015;48.670;9.060;2023-05-07T01:46:24;12.20;99.90
4002;DHT22;2015;48.670;9.060;2023-05-07T01:48:56;12.10;99.90
4002;DHT22;2015;48.670;9.060;2023-05-07T01:51:28;12.10;99.90
4002;DHT22;2015;48.670;9.060;2023-05-07T01:53:59;12.10;99.90
4002;DHT22;2015;48.670;9.060;2023-05-07T01:56:31;12.10;99.90
4002;DHT22;2015;48.670;9.060;2023-05-07T01:59:03;12.10;99.90
4002;DHT22;2015;48.670;9.060;2023-05-07T02:01:35;12.10;99.90
4002;DHT22;2015;48.670;9.060;2023-05-07T02:04:07;12.10;99.90
4002;DHT22;2015;48.670;9.060;2023-05-07T02:06:39;12.00;99.90
4002;DHT22;2015;48.670;9.060;2023-05-07T02:09:11;12.00;99.90
4002;DHT22;2015;48.670;9.060;2023-05-07T02:11:42;12.00;99.90
4002;DHT22;2015;48.670;9.060;2023-05-07T02:14:14;12.00;99.90
4002;DHT22;2015;48.670;9.060;2023-05-07T02:16:46;12.00;99.90
4002;DHT22;2015;48.670;9.060;2023-05-07T02:19:18;12.00;99.90
4002;DHT22;2015;48.670;9.060;2023-05-07T02:21:52;11.90;99.90
4002;DHT22;2015;48.670;9.060;2023-05-07T02:24:24;11.90;99.90
4002;DHT22;2015;48.670;9.060;2023-05-07T02:26:56;11.90;99.90
4002;DHT22;2015;48.670;9.060;2023-05-07T02:29:27;11.80;99.90
4002;DHT22;2015;48.670;9.060;2023-05-07T02:31:59;11.80;99.90
4002;DHT22;2015;48.670;9.060;2023-05-07T02:34:31;11.80;99.90
4002;DHT22;2015;48.670;9.060;2023-05-07T02:37:03;11.80;99.90
4002;DHT22;2015;48.670;9.060;2023-05-07T02:39:35;11.80;99.90
4002;DHT22;2015;48.670;9.060;2023-05-07T02:42:06;11.70;99.90
4002;DHT22;2015;48.670;9.060;2023-05-07T02:44:38;11.70;99.90
4002;DHT22;2015;48.670;9.060;2023-05-07T02:47:10;11.70;99.90
4002;DHT22;2015;48.670;9.060;2023-05-07T02:49:44;11.70;99.90
4002;DHT22;2015;48.670;9.060;2023-05-07T02:52:16;11.70;99.90
4002;DHT22;2015;48.670;9.060;2023-05-07T02:54:47;11.60;99.90
4002;DHT22;2015;48.670;9.060;2023-05-07T02:57:19;11.60;99.90
4002;DHT22;2015;48.670;9.060;2023-05-07T02:59:51;11.60;99.90
4002;DHT22;2015;48.670;9.060;2023-05-07T03:02:23;11.60;99.90
4002;DHT22;2015;48.670;9.060;2023-05-07T03:04:55;11.50;99.90
4002;DHT22;2015;48.670;9.060;2023-05-07T03:07:26;11.50;99.90
4002;DHT22;2015;48.670;9.060;2023-05-07T03:09:58;11.40;99.90
4002;DHT22;2015;48.670;9.060;2023-05-07T03:12:30;11.40;99.90
4002;DHT22;2015;48.670;9.060;2023-05-07T03:15:02;11.40;99.90
4002;DHT22;2015;48.670;9.060;2023-05-07T03:17:34;11.40;99.90
4002;DHT22;2015;48.670;9.060;2023-05-07T03:20:07;11.40;99.90
4002;DHT22;2015;48.670;9.060;2023-05-07T03:22:40;11.40;99.90
4002;DHT22;2015;48.670;9.060;2023-05-07T03:25:12;11.40;99.90
4002;DHT22;2015;48.670;9.060;2023-05-07T03:27:44;11.40;99.90
4002;DHT22;2015;48.670;9.060;2023-05-07T03:30:15;11.40;99.90
4002;DHT22;2015;48.670;9.060;2023-05-07T03:32:47;11.30;99.90
4002;DHT22;2015;48.670;9.060;2023-05-07T03:35:19;11.30;99.90
4002;DHT22;2015;48.670;9.060;2023-05-07T03:37:51;11.30;99.90
4002;DHT22;2015;48.670;9.060;2023-05-07T03:40:22;11.30;99.90
4002;DHT22;2015;48.670;9.060;2023-05-07T03:42:54;11.30;99.90
4002;DHT22;2015;48.670;9.060;2023-05-07T03:45:26;11.30;99.90
4002;DHT22;2015;48.670;9.060;2023-05-07T03:47:58;11.20;99.90
4002;DHT22;2015;48.670;9.060;2023-05-07T03:50:29;11.20;99.90
4002;DHT22;2015;48.670;9.060;2023-05-07T03:53:01;11.20;99.90
4002;DHT22;2015;48.670;9.060;2023-05-07T03:55:33;11.20;99.90
4002;DHT22;2015;48.670;9.060;2023-05-07T03:58:05;11.10;99.90
4002;DHT22;2015;48.670;9.060;2023-05-07T04:00:36;11.10;99.90
4002;DHT22;2015;48.670;9.060;2023-05-07T04:03:12;11.10;99.90
4002;DHT22;2015;48.670;9.060;2023-05-07T04:05:44;11.10;99.90
4002;DHT22;2015;48.670;9.060;2023-05-07T04:08:16;11.00;99.90
4002;DHT22;2015;48.670;9.060;2023-05-07T04:10:48;11.00;99.90
4002;DHT22;2015;48.670;9.060;2023-05-07T04:13:19;10.90;99.90
4002;DHT22;2015;48.670;9.060;2023-05-07T04:15:52;10.90;99.90
4002;DHT22;2015;48.670;9.060;2023-05-07T04:18:24;10.90;99.90
4002;DHT22;2015;48.670;9.060;2023-05-07T04:20:56;10.90;99.90
4002;DHT22;2015;48.670;9.060;2023-05-07T04:23:28;10.90;99.90
4002;DHT22;2015;48.670;9.060;2023-05-07T04:25:59;11.00;99.90
4002;DHT22;2015;48.670;9.060;2023-05-07T04:28:32;11.00;99.90
4002;DHT22;2015;48.670;9.060;2023-05-07T04:31:04;11.00;99.90
4002;DHT22;2015;48.670;9.060;2023-05-07T04:33:36;11.00;99.90
4002;DHT22;2015;48.670;9.060;2023-05-07T04:36:08;11.00;99.90
4002;DHT22;2015;48.670;9.060;2023-05-07T04:38:40;11.00;99.90
4002;DHT22;2015;48.670;9.060;2023-05-07T04:41:13;11.10;99.90
4002;DHT22;2015;48.670;9.060;2023-05-07T04:43:44;11.00;99.90
4002;DHT22;2015;48.670;9.060;2023-05-07T04:46:17;11.00;99.90
4002;DHT22;2015;48.670;9.060;2023-05-07T04:48:48;11.00;99.90
4002;DHT22;2015;48.670;9.060;2023-05-07T04:51:20;11.10;99.90
4002;DHT22;2015;48.670;9.060;2023-05-07T04:53:52;11.10;99.90
4002;DHT22;2015;48.670;9.060;2023-05-07T04:56:24;11.10;99.90
4002;DHT22;2015;48.670;9.060;2023-05-07T04:58:56;11.10;99.90
4002;DHT22;2015;48.670;9.060;2023-05-07T05:01:28;11.20;99.90
4002;DHT22;2015;48.670;9.060;2023-05-07T05:03:59;11.20;99.90
4002;DHT22;2015;48.670;9.060;2023-05-07T05:06:32;11.30;99.90
4002;DHT22;2015;48.670;9.060;2023-05-07T05:09:04;11.30;99.90
4002;DHT22;2015;48.670;9.060;2023-05-07T05:11:36;11.40;99.90
4002;DHT22;2015;48.670;9.060;2023-05-07T05:14:08;11.60;99.90
4002;DHT22;2015;48.670;9.060;2023-05-07T05:16:39;11.60;99.90
4002;DHT22;2015;48.670;9.060;2023-05-07T05:19:12;11.70;99.90
4002;DHT22;2015;48.670;9.060;2023-05-07T05:21:43;11.80;99.90
4002;DHT22;2015;48.670;9.060;2023-05-07T05:24:15;11.80;99.90
4002;DHT22;2015;48.670;9.060;2023-05-07T05:26:47;11.90;99.90
4002;DHT22;2015;48.670;9.060;2023-05-07T05:29:18;12.00;99.90
4002;DHT22;2015;48.670;9.060;2023-05-07T05:31:50;12.20;99.90
4002;DHT22;2015;48.670;9.060;2023-05-07T05:34:22;12.40;99.90
4002;DHT22;2015;48.670;9.060;2023-05-07T05:36:54;12.60;99.90
4002;DHT22;2015;48.670;9.060;2023-05-07T05:39:26;12.70;99.90
4002;DHT22;2015;48.670;9.060;2023-05-07T05:41:57;12.80;99.90
4002;DHT22;2015;48.670;9.060;2023-05-07T05:44:29;12.90;99.90
4002;DHT22;2015;48.670;9.060;2023-05-07T05:47:01;13.00;99.90
4002;DHT22;2015;48.670;9.060;2023-05-07T05:49:33;13.00;99.90
4002;DHT22;2015;48.670;9.060;2023-05-07T05:52:05;13.10;99.90
4002;DHT22;2015;48.670;9.060;2023-05-07T05:54:38;13.20;99.90
4002;DHT22;2015;48.670;9.060;2023-05-07T05:57:10;13.30;99.90
4002;DHT22;2015;48.670;9.060;2023-05-07T05:59:42;13.40;99.90
4002;DHT22;2015;48.670;9.060;2023-05-07T06:02:14;13.50;99.90
4002;DHT22;2015;48.670;9.060;2023-05-07T06:04:46;13.60;99.90
4002;DHT22;2015;48.670;9.060;2023-05-07T06:07:18;13.60;99.90
4002;DHT22;2015;48.670;9.060;2023-05-07T06:09:49;13.60;99.90
4002;DHT22;2015;48.670;9.060;2023-05-07T06:12:21;13.70;99.90
4002;DHT22;2015;48.670;9.060;2023-05-07T06:14:53;13.80;99.90
4002;DHT22;2015;48.670;9.060;2023-05-07T06:17:25;13.90;99.90
4002;DHT22;2015;48.670;9.060;2023-05-07T06:19:57;14.00;99.90
4002;DHT22;2015;48.670;9.060;2023-05-07T06:22:28;14.10;99.90
4002;DHT22;2015;48.670;9.060;2023-05-07T06:25:00;14.20;99.90
4002;DHT22;2015;48.670;9.060;2023-05-07T06:27:32;14.40;99.90
4002;DHT22;2015;48.670;9.060;2023-05-07T06:30:04;14.60;99.90
4002;DHT22;2015;48.670;9.060;2023-05-07T06:32:36;14.90;99.90
4002;DHT22;2015;48.670;9.060;2023-05-07T06:35:08;15.00;99.90
4002;DHT22;2015;48.670;9.060;2023-05-07T06:37:41;15.10;99.90
4002;DHT22;2015;48.670;9.060;2023-05-07T06:40:14;15.20;99.90
4002;DHT22;2015;48.670;9.060;2023-05-07T06:42:46;15.30;99.90
4002;DHT22;2015;48.670;9.060;2023-05-07T06:45:18;15.20;99.90
4002;DHT22;2015;48.670;9.060;2023-05-07T06:47:50;15.20;99.90
4002;DHT22;2015;48.670;9.060;2023-05-07T06:50:22;15.20;99.90
4002;DHT22;2015;48.670;9.060;2023-05-07T06:52:54;15.20;99.90
4002;DHT22;2015;48.670;9.060;2023-05-07T06:55:25;15.20;99.90
4002;DHT22;2015;48.670;9.060;2023-05-07T06:57:57;15.40;99.90
4002;DHT22;2015;48.670;9.060;2023-05-07T07:00:32;15.40;99.90
4002;DHT22;2015;48.670;9.060;2023-05-07T07:03:04;15.50;99.90
4002;DHT22;2015;48.670;9.060;2023-05-07T07:05:37;15.60;99.90
4002;DHT22;2015;48.670;9.060;2023-05-07T07:08:09;15.70;99.90
4002;DHT22;2015;48.670;9.060;2023-05-07T07:10:41;15.90;99.90
4002;DHT22;2015;48.670;9.060;2023-05-07T07:13:13;15.90;99.90
4002;DHT22;2015;48.670;9.060;2023-05-07T07:15:45;16.00;99.90
4002;DHT22;2015;48.670;9.060;2023-05-07T07:18:17;16.00;99.90
4002;DHT22;2015;48.670;9.060;2023-05-07T07:20:49;16.20;99.90
4002;DHT22;2015;48.670;9.060;2023-05-07T07:23:20;16.30;99.90
4002;DHT22;2015;48.670;9.060;2023-05-07T07:25:52;16.60;99.90
4002;DHT22;2015;48.670;9.060;2023-05-07T07:28:24;16.70;99.90
4002;DHT22;2015;48.670;9.060;2023-05-07T07:30:56;16.90;99.90
4002;DHT22;2015;48.670;9.060;2023-05-07T07:33:27;17.00;99.90
4002;DHT22;2015;48.670;9.060;2023-05-07T07:35:59;17.20;99.90
4002;DHT22;2015;48.670;9.060;2023-05-07T07:38:31;17.30;99.90
4002;DHT22;2015;48.670;9.060;2023-05-07T07:41:03;17.50;99.90
4002;DHT22;2015;48.670;9.060;2023-05-07T07:43:35;17.70;99.90
4002;DHT22;2015;48.670;9.060;2023-05-07T07:46:07;17.90;99.90
4002;DHT22;2015;48.670;9.060;2023-05-07T07:48:38;18.00;99.90
4002;DHT22;2015;48.670;9.060;2023-05-07T07:51:10;18.10;99.90
4002;DHT22;2015;48.670;9.060;2023-05-07T07:53:42;18.20;99.90
4002;DHT22;2015;48.670;9.060;2023-05-07T07:56:14;18.40;99.90
4002;DHT22;2015;48.670;9.060;2023-05-07T07:58:46;18.40;99.90
4002;DHT22;2015;48.670;9.060;2023-05-07T08:01:18;18.40;99.90
4002;DHT22;2015;48.670;9.060;2023-05-07T08:03:50;18.40;99.90
4002;DHT22;2015;48.670;9.060;2023-05-07T08:06:22;18.60;99.90
4002;DHT22;2015;48.670;9.060;2023-05-07T08:08:54;18.70;99.90
4002;DHT22;2015;48.670;9.060;2023-05-07T08:11:25;18.90;99.90
4002;DHT22;2015;48.670;9.060;2023-05-07T08:13:57;19.00;99.90
4002;DHT22;2015;48.670;9.060;2023-05-07T08:16:29;19.10;99.90
4002;DHT22;2015;48.670;9.060;2023-05-07T08:19:01;19.10;99.90
4002;DHT22;2015;48.670;9.060;2023-05-07T08:21:34;19.30;99.90
4002;DHT22;2015;48.670;9.060;2023-05-07T08:24:06;19.30;99.90
4002;DHT22;2015;48.670;9.060;2023-05-07T08:26:38;19.40;99.90
4002;DHT22;2015;48.670;9.060;2023-05-07T08:29:11;19.70;99.90
4002;DHT22;2015;48.670;9.060;2023-05-07T08:31:42;19.90;99.90
4002;DHT22;2015;48.670;9.060;2023-05-07T08:34:14;20.00;99.90
4002;DHT22;2015;48.670;9.060;2023-05-07T08:36:46;20.20;99.90
4002;DHT22;2015;48.670;9.060;2023-05-07T08:39:20;20.30;99.90
4002;DHT22;2015;48.670;9.060;2023-05-07T08:41:55;20.30;99.90
4002;DHT22;2015;48.670;9.060;2023-05-07T08:44:28;20.30;99.90
4002;DHT22;2015;48.670;9.060;2023-05-07T08:47:06;20.50;99.90
4002;DHT22;2015;48.670;9.060;2023-05-07T08:49:38;20.60;99.90
4002;DHT22;2015;48.670;9.060;2023-05-07T08:52:12;20.70;99.90
4002;DHT22;2015;48.670;9.060;2023-05-07T08:54:44;21.60;99.90
4002;DHT22;2015;48.670;9.060;2023-05-07T08:57:16;22.50;99.90
4002;DHT22;2015;48.670;9.060;2023-05-07T08:59:47;23.70;99.90
4002;DHT22;2015;48.670;9.060;2023-05-07T09:02:19;24.60;99.90
4002;DHT22;2015;48.670;9.060;2023-05-07T09:04:51;25.30;99.90
4002;DHT22;2015;48.670;9.060;2023-05-07T09:07:25;26.10;99.90
4002;DHT22;2015;48.670;9.060;2023-05-07T09:09:57;26.60;99.90
4002;DHT22;2015;48.670;9.060;2023-05-07T09:12:31;26.90;99.90
4002;DHT22;2015;48.670;9.060;2023-05-07T09:15:03;27.30;99.90
4002;DHT22;2015;48.670;9.060;2023-05-07T09:17:34;27.00;99.90
4002;DHT22;2015;48.670;9.060;2023-05-07T09:20:06;27.80;99.90
4002;DHT22;2015;48.670;9.060;2023-05-07T09:22:41;28.00;99.90
4002;DHT22;2015;48.670;9.060;2023-05-07T09:25:14;28.70;99.30
4002;DHT22;2015;48.670;9.060;2023-05-07T09:27:45;29.40;97.30
4002;DHT22;2015;48.670;9.060;2023-05-07T09:30:17;29.30;97.20
4002;DHT22;2015;48.670;9.060;2023-05-07T09:32:50;29.10;97.30
4002;DHT22;2015;48.670;9.060;2023-05-07T09:35:22;28.80;96.20
4002;DHT22;2015;48.670;9.060;2023-05-07T09:37:59;28.40;98.70
4002;DHT22;2015;48.670;9.060;2023-05-07T09:40:35;27.80;97.70
4002;DHT22;2015;48.670;9.060;2023-05-07T09:43:11;28.20;98.70
4002;DHT22;2015;48.670;9.060;2023-05-07T09:45:44;28.30;98.40
4002;DHT22;2015;48.670;9.060;2023-05-07T09:48:17;29.50;95.90
4002;DHT22;2015;48.670;9.060;2023-05-07T09:50:51;29.60;95.50
4002;DHT22;2015;48.670;9.060;2023-05-07T09:53:29;29.70;95.00
4002;DHT22;2015;48.670;9.060;2023-05-07T09:56:02;30.00;94.00
4002;DHT22;2015;48.670;9.060;2023-05-07T09:58:37;29.70;95.00
4002;DHT22;2015;48.670;9.060;2023-05-07T10:01:12;29.80;94.10
4002;DHT22;2015;48.670;9.060;2023-05-07T10:03:44;29.90;95.30
4002;DHT22;2015;48.670;9.060;2023-05-07T10:06:17;30.60;93.20
4002;DHT22;2015;48.670;9.060;2023-05-07T10:08:49;30.80;92.70
4002;DHT22;2015;48.670;9.060;2023-05-07T10:11:22;30.90;91.20
4002;DHT22;2015;48.670;9.060;2023-05-07T10:13:54;30.80;92.80
4002;DHT22;2015;48.670;9.060;2023-05-07T10:16:27;30.40;92.00
4002;DHT22;2015;48.670;9.060;2023-05-07T10:18:59;30.80;92.30
4002;DHT22;2015;48.670;9.060;2023-05-07T10:21:40;30.20;92.00
4002;DHT22;2015;48.670;9.060;2023-05-07T10:24:34;29.50;92.10
4002;DHT22;2015;48.670;9.060;2023-05-07T10:27:11;27.70;94.40
4002;DHT22;2015;48.670;9.060;2023-05-07T10:30:35;27.20;95.80
4002;DHT22;2015;48.670;9.060;2023-05-07T10:32:55;27.40;94.70
4002;DHT22;2015;48.670;9.060;2023-05-07T10:35:30;27.80;95.70
4002;DHT22;2015;48.670;9.060;2023-05-07T10:38:04;28.20;95.60
4002;DHT22;2015;48.670;9.060;2023-05-07T10:40:36;28.90;94.20
4002;DHT22;2015;48.670;9.060;2023-05-07T10:43:08;30.10;91.50
4002;DHT22;2015;48.670;9.060;2023-05-07T10:45:41;29.90;92.40
4002;DHT22;2015;48.670;9.060;2023-05-07T10:48:14;30.20;92.40
4002;DHT22;2015;48.670;9.060;2023-05-07T10:50:49;30.00;91.60
4002;DHT22;2015;48.670;9.060;2023-05-07T10:53:41;28.90;92.40
4002;DHT22;2015;48.670;9.060;2023-05-07T10:58:50;28.20;93.20
4002;DHT22;2015;48.670;9.060;2023-05-07T11:01:58;28.70;93.10
4002;DHT22;2015;48.670;9.060;2023-05-07T11:04:30;28.80;93.10
4002;DHT22;2015;48.670;9.060;2023-05-07T11:15:16;28.50;92.60
4002;DHT22;2015;48.670;9.060;2023-05-07T11:18:04;27.70;93.50
4002;DHT22;2015;48.670;9.060;2023-05-07T11:20:54;27.20;94.50
4002;DHT22;2015;48.670;9.060;2023-05-07T11:26:10;27.00;94.00
4002;DHT22;2015;48.670;9.060;2023-05-07T11:28:43;26.40;94.50
4002;DHT22;2015;48.670;9.060;2023-05-07T11:31:21;26.00;95.00
4002;DHT22;2015;48.670;9.060;2023-05-07T11:33:54;25.40;95.00
4002;DHT22;2015;48.670;9.060;2023-05-07T11:36:30;25.00;95.60
4002;DHT22;2015;48.670;9.060;2023-05-07T11:39:02;24.50;97.80
4002;DHT22;2015;48.670;9.060;2023-05-07T11:41:37;24.30;96.50
4002;DHT22;2015;48.670;9.060;2023-05-07T11:44:09;24.20;97.30
4002;DHT22;2015;48.670;9.060;2023-05-07T11:46:43;24.00;97.60
4002;DHT22;2015;48.670;9.060;2023-05-07T11:49:18;23.70;97.90
4002;DHT22;2015;48.670;9.060;2023-05-07T11:51:50;23.40;99.90
4002;DHT22;2015;48.670;9.060;2023-05-07T11:54:22;23.20;99.90
4002;DHT22;2015;48.670;9.060;2023-05-07T11:56:56;23.10;99.90
4002;DHT22;2015;48.670;9.060;2023-05-07T11:59:27;23.00;99.90
4002;DHT22;2015;48.670;9.060;2023-05-07T12:01:59;22.70;99.90
4002;DHT22;2015;48.670;9.060;2023-05-07T12:04:31;22.40;99.90
4002;DHT22;2015;48.670;9.060;2023-05-07T12:07:03;22.20;99.90
4002;DHT22;2015;48.670;9.060;2023-05-07T12:09:35;21.80;99.90
4002;DHT22;2015;48.670;9.060;2023-05-07T12:12:07;21.10;99.90
4002;DHT22;2015;48.670;9.060;2023-05-07T12:14:43;20.50;99.90
4002;DHT22;2015;48.670;9.060;2023-05-07T12:17:16;19.90;99.90
4002;DHT22;2015;48.670;9.060;2023-05-07T12:19:48;19.60;99.90
4002;DHT22;2015;48.670;9.060;2023-05-07T12:22:20;19.30;99.90
4002;DHT22;2015;48.670;9.060;2023-05-07T12:24:58;19.10;99.90
4002;DHT22;2015;48.670;9.060;2023-05-07T12:27:30;19.10;99.90
4002;DHT22;2015;48.670;9.060;2023-05-07T12:30:02;18.70;99.90
4002;DHT22;2015;48.670;9.060;2023-05-07T12:32:36;18.30;99.90
4002;DHT22;2015;48.670;9.060;2023-05-07T12:35:08;17.80;99.90
4002;DHT22;2015;48.670;9.060;2023-05-07T12:37:41;17.20;99.90
4002;DHT22;2015;48.670;9.060;2023-05-07T12:40:13;16.40;99.90
4002;DHT22;2015;48.670;9.060;2023-05-07T12:42:45;15.60;99.90
4002;DHT22;2015;48.670;9.060;2023-05-07T12:45:16;14.90;99.90
4002;DHT22;2015;48.670;9.060;2023-05-07T12:47:49;14.70;99.90
4002;DHT22;2015;48.670;9.060;2023-05-07T12:50:21;14.40;99.90
4002;DHT22;2015;48.670;9.060;2023-05-07T12:52:53;14.20;99.90
4002;DHT22;2015;48.670;9.060;2023-05-07T12:55:25;13.90;99.90
4002;DHT22;2015;48.670;9.060;2023-05-07T12:58:01;13.80;99.90
4002;DHT22;2015;48.670;9.060;2023-05-07T13:00:38;13.80;99.90
4002;DHT22;2015;48.670;9.060;2023-05-07T13:03:11;13.90;99.90
4002;DHT22;2015;48.670;9.060;2023-05-07T13:05:43;13.90;99.90
4002;DHT22;2015;48.670;9.060;2023-05-07T13:08:24;13.70;99.90
4002;DHT22;2015;48.670;9.060;2023-05-07T13:11:00;13.60;99.90
4002;DHT22;2015;48.670;9.060;2023-05-07T13:13:36;13.70;99.90
4002;DHT22;2015;48.670;9.060;2023-05-07T13:16:10;13.80;99.90
4002;DHT22;2015;48.670;9.060;2023-05-07T13:18:43;13.80;99.90
4002;DHT22;2015;48.670;9.060;2023-05-07T13:21:17;13.90;99.90
4002;DHT22;2015;48.670;9.060;2023-05-07T13:23:49;13.90;99.90
4002;DHT22;2015;48.670;9.060;2023-05-07T13:26:21;13.90;99.90
4002;DHT22;2015;48.670;9.060;2023-05-07T13:28:57;14.00;99.90
4002;DHT22;2015;48.670;9.060;2023-05-07T13:31:29;14.00;99.90
4002;DHT22;2015;48.670;9.060;2023-05-07T13:34:01;14.00;99.90
4002;DHT22;2015;48.670;9.060;2023-05-07T13:36:33;14.00;99.90
4002;DHT22;2015;48.670;9.060;2023-05-07T13:39:08;13.90;99.90
4002;DHT22;2015;48.670;9.060;2023-05-07T13:41:40;13.80;99.90
4002;DHT22;2015;48.670;9.060;2023-05-07T13:44:12;13.90;99.90
4002;DHT22;2015;48.670;9.060;2023-05-07T13:46:44;14.10;99.90
4002;DHT22;2015;48.670;9.060;2023-05-07T13:49:15;14.20;99.90
4002;DHT22;2015;48.670;9.060;2023-05-07T13:51:47;14.20;99.90
4002;DHT22;2015;48.670;9.060;2023-05-07T13:54:19;14.20;99.90
4002;DHT22;2015;48.670;9.060;2023-05-07T13:56:51;14.30;99.90
4002;DHT22;2015;48.670;9.060;2023-05-07T13:59:22;14.30;99.90
4002;DHT22;2015;48.670;9.060;2023-05-07T14:01:54;14.30;99.90
4002;DHT22;2015;48.670;9.060;2023-05-07T14:04:26;14.30;99.90
4002;DHT22;2015;48.670;9.060;2023-05-07T14:06:58;14.30;99.90
4002;DHT22;2015;48.670;9.060;2023-05-07T14:09:29;14.40;99.90
4002;DHT22;2015;48.670;9.060;2023-05-07T14:12:02;14.40;99.90
4002;DHT22;2015;48.670;9.060;2023-05-07T14:14:33;14.40;99.90
4002;DHT22;2015;48.670;9.060;2023-05-07T14:17:05;14.40;99.90
4002;DHT22;2015;48.670;9.060;2023-05-07T14:19:37;14.40;99.90
4002;DHT22;2015;48.670;9.060;2023-05-07T14:22:09;14.40;99.90
4002;DHT22;2015;48.670;9.060;2023-05-07T14:24:41;14.30;99.90
4002;DHT22;2015;48.670;9.060;2023-05-07T14:27:13;14.20;99.90
4002;DHT22;2015;48.670;9.060;2023-05-07T14:29:44;14.20;99.90
4002;DHT22;2015;48.670;9.060;2023-05-07T14:32:17;14.30;99.90
4002;DHT22;2015;48.670;9.060;2023-05-07T14:34:50;14.40;99.90
4002;DHT22;2015;48.670;9.060;2023-05-07T14:37:22;14.40;99.90
4002;DHT22;2015;48.670;9.060;2023-05-07T14:39:53;14.40;99.90
4002;DHT22;2015;48.670;9.060;2023-05-07T14:42:25;14.40;99.90
4002;DHT22;2015;48.670;9.060;2023-05-07T14:44:57;14.40;99.90
4002;DHT22;2015;48.670;9.060;2023-05-07T14:47:28;14.50;99.90
4002;DHT22;2015;48.670;9.060;2023-05-07T14:50:00;14.50;99.90
4002;DHT22;2015;48.670;9.060;2023-05-07T14:52:32;14.50;99.90
4002;DHT22;2015;48.670;9.060;2023-05-07T14:55:04;14.60;99.90
4002;DHT22;2015;48.670;9.060;2023-05-07T14:57:36;14.60;99.90
4002;DHT22;2015;48.670;9.060;2023-05-07T15:00:09;14.60;99.90
4002;DHT22;2015;48.670;9.060;2023-05-07T15:02:42;14.70;99.90
4002;DHT22;2015;48.670;9.060;2023-05-07T15:05:14;14.60;99.90
4002;DHT22;2015;48.670;9.060;2023-05-07T15:07:46;14.60;99.90
4002;DHT22;2015;48.670;9.060;2023-05-07T15:10:18;14.70;99.90
4002;DHT22;2015;48.670;9.060;2023-05-07T15:12:49;14.80;99.90
4002;DHT22;2015;48.670;9.060;2023-05-07T15:15:21;14.80;99.90
4002;DHT22;2015;48.670;9.060;2023-05-07T15:17:53;14.90;99.90
4002;DHT22;2015;48.670;9.060;2023-05-07T15:20:26;14.90;99.90
4002;DHT22;2015;48.670;9.060;2023-05-07T15:22:57;14.90;99.90
4002;DHT22;2015;48.670;9.060;2023-05-07T15:25:29;14.90;99.90
4002;DHT22;2015;48.670;9.060;2023-05-07T15:28:02;15.00;99.90
4002;DHT22;2015;48.670;9.060;2023-05-07T15:30:34;15.00;99.90
4002;DHT22;2015;48.670;9.060;2023-05-07T15:33:06;15.00;99.90
4002;DHT22;2015;48.670;9.060;2023-05-07T15:35:38;15.00;99.90
4002;DHT22;2015;48.670;9.060;2023-05-07T15:38:09;15.10;99.90
4002;DHT22;2015;48.670;9.060;2023-05-07T15:40:42;15.10;99.90
4002;DHT22;2015;48.670;9.060;2023-05-07T15:43:14;15.10;99.90
4002;DHT22;2015;48.670;9.060;2023-05-07T15:45:45;15.20;99.90
4002;DHT22;2015;48.670;9.060;2023-05-07T15:48:17;15.30;99.90
4002;DHT22;2015;48.670;9.060;2023-05-07T15:50:49;15.30;99.90
4002;DHT22;2015;48.670;9.060;2023-05-07T15:53:21;15.30;99.90
4002;DHT22;2015;48.670;9.060;2023-05-07T15:55:53;15.40;99.90
4002;DHT22;2015;48.670;9.060;2023-05-07T15:58:26;15.50;99.90
4002;DHT22;2015;48.670;9.060;2023-05-07T16:00:58;15.50;99.90
4002;DHT22;2015;48.670;9.060;2023-05-07T16:03:31;15.60;99.90
4002;DHT22;2015;48.670;9.060;2023-05-07T16:06:03;15.70;99.90
4002;DHT22;2015;48.670;9.060;2023-05-07T16:08:36;15.70;99.90
4002;DHT22;2015;48.670;9.060;2023-05-07T16:11:08;15.80;99.90
4002;DHT22;2015;48.670;9.060;2023-05-07T16:13:40;15.90;99.90
4002;DHT22;2015;48.670;9.060;2023-05-07T16:16:12;15.90;99.90
4002;DHT22;2015;48.670;9.060;2023-05-07T16:18:43;15.90;99.90
4002;DHT22;2015;48.670;9.060;2023-05-07T16:21:15;15.80;99.90
4002;DHT22;2015;48.670;9.060;2023-05-07T16:23:48;15.80;99.90
4002;DHT22;2015;48.670;9.060;2023-05-07T16:26:21;15.80;99.90
4002;DHT22;2015;48.670;9.060;2023-05-07T16:28:53;15.80;99.90
4002;DHT22;2015;48.670;9.060;2023-05-07T16:31:25;15.80;99.90
4002;DHT22;2015;48.670;9.060;2023-05-07T16:33:56;15.80;99.90
4002;DHT22;2015;48.670;9.060;2023-05-07T16:36:28;15.70;99.90
4002;DHT22;2015;48.670;9.060;2023-05-07T16:39:00;15.70;99.90
4002;DHT22;2015;48.670;9.060;2023-05-07T16:41:32;15.80;99.90
4002;DHT22;2015;48.670;9.060;2023-05-07T16:44:03;15.80;99.90
4002;DHT22;2015;48.670;9.060;2023-05-07T16:46:35;15.80;99.90
4002;DHT22;2015;48.670;9.060;2023-05-07T16:49:07;15.80;99.90
4002;DHT22;2015;48.670;9.060;2023-05-07T16:51:39;15.70;99.90